Time;durP1;ratioP1;P1;durP2;ratioP2;P2;SDS_P1;SDS_P2;PMS_P1;PMS_P2;Temp;Humidity;BMP_temperature;BMP_pressure;BME280_temperature;BME280_humidity;BME280_pressure;Samples;Min_cycle;Max_cycle;Signal;HPM_P1;HPM_P2
2022/01/23 00:01:53;;;;;;;7.40;2.27;;;;;;;-0.77;50.51;101500.59;5348252;32;34593;-69
2022/01/23 00:04:55;;;;;;;10.17;2.47;;;;;;;-1.41;52.54;101497.19;5365819;32;44520;-67
2022/01/23 00:07:58;;;;;;;9.03;2.43;;;;;;;-0.95;51.67;101497.53;5359925;32;36029;-76
2022/01/23 00:11:00;;;;;;;7.60;2.53;;;;;;;-0.73;50.51;101494.63;5358219;32;36216;-77
2022/01/23 00:17:23;;;;;;;4.40;1.80;;;;;;;-1.17;51.85;101512.44;5372436;32;35743;-67
2022/01/23 00:20:25;;;;;;;5.67;2.10;;;;;;;-1.25;51.85;101510.50;5357008;32;44444;-67
2022/01/23 00:33:24;;;;;;;8.97;2.10;;;;;;;-0.85;50.58;101515.84;5361445;32;44310;-77
2022/01/23 00:36:27;;;;;;;7.23;2.20;;;;;;;-0.92;50.91;101518.25;5358163;32;34552;-78
2022/01/23 00:39:29;;;;;;;5.75;1.77;;;;;;;-1.21;52.29;101518.37;5370375;32;35477;-78
2022/01/23 00:42:32;;;;;;;8.40;2.10;;;;;;;-0.61;50.41;101514.72;5366480;32;34451;-67
2022/01/23 00:45:42;;;;;;;6.67;2.33;;;;;;;-0.78;51.17;101526.34;5355511;32;35745;-76
2022/01/23 00:52:00;;;;;;;4.70;1.67;;;;;;;-1.08;51.41;101526.44;5360032;32;35714;-66
2022/01/23 00:55:04;;;;;;;4.43;2.50;;;;;;;-1.24;51.24;101540.62;5341659;32;35910;-66
2022/01/23 00:58:07;;;;;;;6.47;1.95;;;;;;;-0.70;50.32;101541.22;5343136;32;36108;-76
2022/01/23 01:01:09;;;;;;;4.53;1.73;;;;;;;-0.56;49.24;101541.53;5346063;32;36232;-78
2022/01/23 01:04:11;;;;;;;6.70;1.80;;;;;;;-0.48;49.24;101541.72;5361444;32;34621;-76
2022/01/23 01:07:14;;;;;;;8.43;2.57;;;;;;;-0.83;50.07;101539.16;5354197;32;34537;-67
2022/01/23 01:10:23;;;;;;;5.67;2.20;;;;;;;-0.65;49.70;101523.22;5348553;32;45234;-73
2022/01/23 01:13:30;;;;;;;3.83;1.83;;;;;;;-0.52;49.52;101516.66;5360241;32;35731;-68
2022/01/23 01:33:29;;;;;;;7.10;2.30;;;;;;;-0.72;49.86;101500.69;5351657;32;44402;-69
2022/01/23 01:36:54;;;;;;;6.07;2.10;;;;;;;-0.87;50.37;101499.47;5361019;32;32854;-77
2022/01/23 01:39:54;;;;;;;6.57;2.40;;;;;;;-1.02;50.90;101493.94;5365190;32;44480;-69
2022/01/23 01:42:56;;;;;;;8.53;2.50;;;;;;;-1.10;51.11;101498.88;5354630;32;34562;-77
2022/01/23 01:45:59;;;;;;;5.20;2.23;;;;;;;-0.83;49.90;101488.41;5350733;32;37588;-78
2022/01/23 01:49:01;;;;;;;5.23;1.83;;;;;;;-1.44;51.33;101496.22;5348193;32;34563;-77
2022/01/23 01:52:04;;;;;;;8.43;2.20;;;;;;;-1.20;51.23;101517.53;5362341;32;35689;-68
2022/01/23 01:55:09;;;;;;;8.82;2.03;;;;;;;-1.24;52.06;101514.81;5348057;32;36016;-66
2022/01/23 02:11:23;;;;;;;5.37;2.07;;;;;;;-1.36;51.42;101499.88;5361194;32;42426;-77
2022/01/23 02:51:25;;;;;;;7.50;1.93;;;;;;;-1.06;51.51;101492.09;5365325;32;34672;-77
2022/01/23 02:57:55;;;;;;;7.37;2.50;;;;;;;-1.31;51.77;101498.31;5342183;32;44600;-78
2022/01/23 03:04:09;;;;;;;5.97;2.10;;;;;;;-1.38;51.92;101492.13;5357140;32;34584;-77
2022/01/23 03:07:32;;;;;;;6.07;2.40;;;;;;;-1.78;53.28;101500.44;5364937;32;34605;-68
2022/01/23 03:10:40;;;;;;;9.87;2.53;;;;;;;-1.97;53.22;101491.31;5347276;32;34649;-78
2022/01/23 03:13:56;;;;;;;7.03;2.20;;;;;;;-1.81;53.38;101497.78;5363419;32;34560;-77
2022/01/23 03:30:18;;;;;;;4.97;2.30;;;;;;;-1.65;53.18;101497.38;5362658;32;34632;-77
2022/01/23 03:33:21;;;;;;;6.43;2.73;;;;;;;-1.89;53.83;101508.69;5354553;32;45942;-67
2022/01/23 03:36:23;;;;;;;10.03;2.73;;;;;;;-1.60;53.74;101502.69;5364835;32;34098;-67
2022/01/23 03:39:25;;;;;;;7.67;2.37;;;;;;;-0.96;51.46;101490.63;5349232;32;34616;-76
2022/01/23 03:42:28;;;;;;;7.03;2.73;;;;;;;-1.50;52.93;101496.06;5354180;32;34492;-74
2022/01/23 03:51:49;;;;;;;6.67;2.50;;;;;;;-1.28;52.84;101503.56;5361781;32;45764;-67
2022/01/23 03:54:52;;;;;;;7.37;2.50;;;;;;;-1.69;53.74;101495.53;5343385;32;34713;-67
2022/01/23 03:57:54;;;;;;;5.30;2.23;;;;;;;-1.78;54.11;101490.13;5340792;32;33453;-67
2022/01/23 04:00:56;;;;;;;8.93;2.80;;;;;;;-1.64;54.04;101491.41;5354934;32;34422;-76
2022/01/23 04:04:02;;;;;;;8.33;2.30;;;;;;;-1.84;54.54;101492.53;5363796;32;34557;-67
2022/01/23 04:07:12;;;;;;;5.43;2.27;;;;;;;-1.27;52.87;101489.84;5363378;32;34441;-67
2022/01/23 04:10:17;;;;;;;7.10;2.73;;;;;;;-0.91;51.98;101484.72;5363842;32;36002;-76
2022/01/23 04:13:29;;;;;;;6.60;2.43;;;;;;;-1.27;52.84;101495.00;5363741;32;45971;-68
2022/01/23 04:59:49;;;;;;;4.53;1.83;;;;;;;-0.59;49.97;101507.87;5355925;32;35625;-76
2022/01/23 05:06:28;;;;;;;8.83;2.90;;;;;;;-0.94;51.54;101519.94;5350165;32;43007;-66
2022/01/23 05:09:31;;;;;;;8.73;2.60;;;;;;;-0.59;50.26;101508.75;5366448;32;34616;-77
2022/01/23 05:12:34;;;;;;;6.77;2.20;;;;;;;-0.05;49.00;101521.22;5373134;32;35908;-75
2022/01/23 05:15:36;;;;;;;12.07;2.70;;;;;;;-0.78;50.50;101527.22;5364853;32;35872;-75
2022/01/23 05:18:39;;;;;;;6.67;2.37;;;;;;;-0.18;49.54;101531.25;5359649;32;35979;-67
2022/01/23 05:27:56;;;;;;;6.40;2.00;;;;;;;0.25;47.85;101548.56;5360156;32;34636;-67
2022/01/23 05:30:58;;;;;;;7.80;2.30;;;;;;;-0.55;49.07;101548.44;5365360;32;34668;-67
2022/01/23 05:34:00;;;;;;;6.57;2.17;;;;;;;-0.45;49.31;101563.34;5367122;32;34459;-75
2022/01/23 05:37:02;;;;;;;9.07;2.30;;;;;;;-0.04;48.18;101553.97;5366740;32;34495;-76
2022/01/23 05:40:07;;;;;;;8.33;2.10;;;;;;;-0.50;48.84;101559.78;5366365;32;35082;-67
2022/01/23 05:43:09;;;;;;;6.03;2.23;;;;;;;-0.15;47.85;101549.41;5368109;32;34581;-67
2022/01/23 05:46:11;;;;;;;6.00;2.30;;;;;;;-0.09;47.74;101558.16;5366833;32;36022;-66
2022/01/23 05:49:13;;;;;;;8.47;2.37;;;;;;;-0.15;47.77;101575.22;5364472;32;34483;-75
2022/01/23 05:52:16;;;;;;;8.37;2.60;;;;;;;-0.36;47.78;101573.03;5364985;32;46753;-76
2022/01/23 05:55:18;;;;;;;10.97;2.80;;;;;;;0.07;46.98;101574.03;5323180;32;44499;-77
2022/01/23 05:58:20;;;;;;;6.53;2.03;;;;;;;-0.31;47.49;101574.00;5352379;32;35898;-66
2022/01/23 06:01:22;;;;;;;7.23;2.20;;;;;;;0.48;45.84;101573.22;5353931;32;36288;-66
2022/01/23 06:04:25;;;;;;;5.60;1.93;;;;;;;0.21;46.59;101573.50;5367132;32;36267;-76
2022/01/23 06:07:28;;;;;;;4.03;1.73;;;;;;;-0.53;47.93;101590.66;5362647;32;34536;-67
2022/01/23 06:10:45;;;;;;;6.80;2.43;;;;;;;0.21;46.23;101588.12;5349642;32;35889;-66
2022/01/23 06:13:48;;;;;;;7.03;2.10;;;;;;;-0.15;46.91;101586.44;5370250;32;45002;-67
2022/01/23 06:16:50;;;;;;;9.70;2.17;;;;;;;-0.28;47.47;101581.81;5364115;32;35797;-76
2022/01/23 06:19:53;;;;;;;4.80;2.10;;;;;;;0.08;46.41;101581.81;5348968;32;36576;-77
2022/01/23 06:22:57;;;;;;;;;;;;;;;-0.29;47.57;101596.44;5353121;32;35914;-77
2022/01/23 06:25:59;;;;;;;5.47;2.17;;;;;;;-0.53;47.16;101607.88;5356174;32;34331;-77
2022/01/23 06:29:02;;;;;;;7.10;2.17;;;;;;;-0.41;47.50;101610.78;5358621;32;34516;-68
2022/01/23 06:32:05;;;;;;;4.97;1.87;;;;;;;-0.47;47.78;101615.78;5355627;32;35170;-78
2022/01/23 06:35:07;;;;;;;5.37;2.10;;;;;;;-0.26;47.39;101613.72;5351869;32;34613;-67
2022/01/23 06:38:10;;;;;;;7.20;2.07;;;;;;;-0.49;47.58;101617.47;5358496;32;34566;-66
2022/01/23 06:41:12;;;;;;;7.30;2.30;;;;;;;0.08;46.66;101617.13;5356298;32;34331;-75
2022/01/23 06:44:14;;;;;;;8.00;2.10;;;;;;;0.13;45.92;101610.34;5352382;32;35869;-76
2022/01/23 06:47:16;;;;;;;6.90;2.17;;;;;;;-0.43;47.68;101617.63;5353806;32;43967;-67
2022/01/23 06:50:19;;;;;;;6.23;2.30;;;;;;;-0.05;45.99;101622.03;5354941;32;34584;-77
2022/01/23 06:53:21;;;;;;;6.33;2.23;;;;;;;-0.23;47.03;101634.50;5354217;32;34518;-75
2022/01/23 06:56:23;;;;;;;9.53;3.00;;;;;;;-0.15;47.12;101627.78;5326468;32;34909;-77
2022/01/23 06:59:26;;;;;;;8.87;3.80;;;;;;;-0.09;46.77;101630.53;5366811;32;34613;-76
2022/01/23 07:02:28;;;;;;;5.13;2.03;;;;;;;1.07;44.31;101622.69;5349731;32;35356;-76
2022/01/23 07:05:30;;;;;;;12.80;3.07;;;;;;;0.45;45.15;101619.72;5364429;32;34707;-66
2022/01/23 07:08:32;;;;;;;6.80;2.10;;;;;;;-0.12;47.07;101620.13;5360692;32;35843;-68
2022/01/23 07:11:35;;;;;;;6.80;2.23;;;;;;;0.63;45.11;101623.53;5363276;32;35792;-78
2022/01/23 07:14:37;;;;;;;7.10;2.23;;;;;;;0.62;44.76;101627.81;5359667;32;35612;-68
2022/01/23 07:17:40;;;;;;;8.27;2.23;;;;;;;0.66;45.00;101621.88;5366434;32;34674;-67
2022/01/23 07:20:43;;;;;;;8.37;2.60;;;;;;;0.82;45.14;101630.81;5354580;32;34781;-67
2022/01/23 07:23:50;;;;;;;6.73;2.57;;;;;;;0.43;45.15;101623.97;5358445;32;35978;-77
2022/01/23 07:26:53;;;;;;;8.93;2.10;;;;;;;0.69;44.81;101629.69;5368781;32;45786;-66
2022/01/23 07:29:56;;;;;;;5.97;2.50;;;;;;;0.82;44.48;101620.47;5360321;32;35984;-77
2022/01/23 07:32:58;;;;;;;6.53;2.60;;;;;;;0.51;44.71;101619.81;5359498;32;37004;-75
2022/01/23 07:36:02;;;;;;;6.67;2.30;;;;;;;0.30;45.94;101616.78;5347093;32;37267;-67
2022/01/23 07:39:05;;;;;;;6.03;2.20;;;;;;;0.19;46.05;101618.25;5358671;32;34624;-67
2022/01/23 07:42:08;;;;;;;6.97;2.47;;;;;;;0.11;45.95;101623.25;5362919;32;34533;-67
2022/01/23 07:45:10;;;;;;;7.77;2.80;;;;;;;0.50;44.92;101631.00;5364636;32;33588;-77
2022/01/23 07:48:12;;;;;;;7.43;2.70;;;;;;;0.66;45.12;101628.78;5356089;32;35862;-68
2022/01/23 07:51:14;;;;;;;8.23;3.10;;;;;;;0.35;45.50;101628.09;5365560;32;36834;-67
2022/01/23 07:54:17;;;;;;;9.73;2.73;;;;;;;0.51;45.43;101625.00;5366185;32;46602;-75
2022/01/23 07:57:19;;;;;;;8.17;3.27;;;;;;;0.31;45.57;101635.75;5331169;32;34380;-67
2022/01/23 08:00:22;;;;;;;11.47;2.87;;;;;;;1.68;43.06;101629.84;5350229;32;34452;-76
2022/01/23 08:03:24;;;;;;;6.40;2.07;;;;;;;1.98;42.12;101632.06;5354313;32;34616;-67
2022/01/23 08:06:32;;;;;;;7.45;2.78;;;;;;;1.03;43.92;101627.78;5354796;32;34631;-67
2022/01/23 08:09:35;;;;;;;7.87;2.57;;;;;;;1.85;42.69;101629.28;5367230;32;34945;-76
2022/01/23 08:12:43;;;;;;;8.47;2.67;;;;;;;1.31;43.20;101636.97;5360892;32;34714;-76
2022/01/23 08:15:45;;;;;;;8.93;2.73;;;;;;;1.26;43.87;101633.41;5364014;32;34983;-77
2022/01/23 08:18:47;;;;;;;10.10;2.50;;;;;;;1.30;43.01;101643.00;5366526;32;44643;-79
2022/01/23 08:21:50;;;;;;;9.10;2.63;;;;;;;2.13;41.42;101648.75;5352904;32;35954;-77
2022/01/23 08:24:54;;;;;;;10.63;3.27;;;;;;;0.61;44.49;101651.09;5368211;32;34555;-68
2022/01/23 08:27:56;;;;;;;8.98;2.55;;;;;;;0.95;44.67;101656.13;5362622;32;34859;-66
2022/01/23 08:30:59;;;;;;;9.80;2.93;;;;;;;1.25;43.72;101653.25;5366660;32;35935;-77
2022/01/23 08:34:01;;;;;;;7.83;2.70;;;;;;;0.82;44.21;101661.88;5376059;32;34735;-67
2022/01/23 08:37:05;;;;;;;5.73;2.20;;;;;;;1.30;43.08;101666.31;5362747;32;34639;-66
2022/01/23 08:40:17;;;;;;;10.73;3.23;;;;;;;0.88;44.00;101672.38;5369000;32;35869;-76
2022/01/23 08:43:19;;;;;;;9.37;2.40;;;;;;;0.50;44.92;101656.87;5358402;32;43132;-67
2022/01/23 08:46:21;;;;;;;6.20;2.17;;;;;;;0.94;43.95;101658.69;5365093;32;34671;-76
2022/01/23 08:49:30;;;;;;;8.53;2.87;;;;;;;0.29;45.71;101653.81;5374243;32;35740;-67
2022/01/23 08:52:32;;;;;;;7.00;2.67;;;;;;;0.69;44.84;101659.88;5363805;32;34466;-67
2022/01/23 08:55:35;;;;;;;5.32;2.22;;;;;;;0.02;46.43;101671.28;5344102;32;34478;-76
2022/01/23 08:58:39;;;;;;;7.57;2.70;;;;;;;0.29;45.69;101669.34;5352145;32;36167;-66
2022/01/23 09:01:43;;;;;;;8.93;2.40;;;;;;;0.18;45.89;101670.78;5350461;32;35985;-77
2022/01/23 09:04:46;;;;;;;8.87;3.00;;;;;;;0.47;45.36;101669.75;5354868;32;34489;-67
2022/01/23 09:07:48;;;;;;;9.02;2.67;;;;;;;0.65;44.72;101669.31;5363814;32;44165;-67
2022/01/23 09:10:55;;;;;;;17.50;3.00;;;;;;;0.63;45.00;101670.09;5361498;32;35730;-76
2022/01/23 09:14:07;;;;;;;8.03;2.60;;;;;;;0.66;45.46;101680.53;5364146;32;35594;-77
2022/01/23 09:17:10;;;;;;;11.30;3.07;;;;;;;1.32;43.78;101685.34;5364895;32;34751;-76
2022/01/23 09:20:12;;;;;;;8.83;2.53;;;;;;;0.67;44.58;101677.97;5365377;32;34662;-76
2022/01/23 09:23:14;;;;;;;5.77;2.47;;;;;;;0.77;44.35;101686.78;5363681;32;35957;-76
2022/01/23 09:26:18;;;;;;;6.70;2.27;;;;;;;0.92;44.01;101683.66;5363638;32;46555;-69
2022/01/23 09:29:32;;;;;;;8.73;2.43;;;;;;;1.08;43.55;101676.22;5366987;32;34690;-76
2022/01/23 09:32:34;;;;;;;8.53;2.83;;;;;;;1.82;42.17;101683.69;5365269;32;36296;-66
2022/01/23 09:35:38;;;;;;;8.80;4.20;;;;;;;2.70;40.67;101663.41;5366085;32;35918;-67
2022/01/23 09:38:40;;;;;;;11.83;3.03;;;;;;;2.62;40.77;101669.34;5378254;32;34432;-67
2022/01/23 09:41:48;;;;;;;13.53;2.83;;;;;;;1.62;41.71;101680.72;5360755;32;34502;-67
2022/01/23 09:44:53;;;;;;;7.07;2.77;;;;;;;1.11;43.73;101680.63;5372817;32;46344;-76
2022/01/23 09:47:55;;;;;;;16.23;3.77;;;;;;;1.91;41.16;101675.16;5363662;32;35621;-67
2022/01/23 09:50:58;;;;;;;6.47;2.40;;;;;;;2.65;40.39;101665.06;5366477;32;34479;-67
2022/01/23 09:54:00;;;;;;;9.80;3.27;;;;;;;1.91;41.58;101659.63;5361232;32;34821;-68
2022/01/23 09:57:04;;;;;;;6.70;2.60;;;;;;;1.44;42.39;101679.53;5334914;32;35504;-67
2022/01/23 10:00:10;;;;;;;9.80;3.67;;;;;;;1.94;41.98;101671.78;5358149;32;35537;-68
2022/01/23 10:03:15;;;;;;;5.20;2.20;;;;;;;1.37;42.88;101677.66;5361365;32;36555;-77
2022/01/23 10:06:17;;;;;;;7.13;2.80;;;;;;;0.95;43.71;101679.41;5356301;32;42947;-68
2022/01/23 10:09:24;;;;;;;7.87;3.30;;;;;;;2.10;41.84;101677.22;5363899;32;34483;-67
2022/01/23 10:12:26;;;;;;;9.73;3.07;;;;;;;2.30;40.40;101680.13;5359688;32;35926;-67
2022/01/23 10:15:33;;;;;;;9.00;2.67;;;;;;;2.23;41.32;101682.59;5366331;32;35488;-78
2022/01/23 10:18:36;;;;;;;9.10;3.03;;;;;;;3.40;38.98;101678.97;5364045;32;36484;-67
2022/01/23 10:21:39;;;;;;;13.73;3.33;;;;;;;1.93;41.66;101680.38;5365848;32;36180;-67
2022/01/23 10:24:41;;;;;;;10.67;3.13;;;;;;;2.50;40.42;101676.94;5365032;32;36318;-77
2022/01/23 10:28:04;;;;;;;10.10;3.33;;;;;;;3.41;38.83;101674.63;5364157;32;34317;-67
2022/01/23 10:31:07;;;;;;;10.80;3.50;;;;;;;3.48;38.92;101663.47;5366228;32;33685;-67
2022/01/23 10:34:09;;;;;;;10.43;3.10;;;;;;;3.51;38.38;101660.87;5364135;32;36215;-67
2022/01/23 10:37:22;;;;;;;10.47;3.30;;;;;;;2.24;41.15;101664.47;5369669;32;34486;-68
2022/01/23 10:40:32;;;;;;;8.13;3.05;;;;;;;1.82;41.91;101662.94;5364726;32;44405;-67
2022/01/23 10:50:28;;;;;;;11.13;3.27;;;;;;;2.88;39.99;101656.69;5363573;32;34752;-76
2022/01/23 10:53:30;;;;;;;7.90;2.87;;;;;;;2.66;39.70;101660.75;5377197;32;36767;-76
2022/01/23 10:56:40;;;;;;;12.27;3.90;;;;;;;2.34;40.97;101660.31;5319172;32;35525;-77
2022/01/23 10:59:48;;;;;;;10.90;3.17;;;;;;;4.09;37.83;101640.59;5352390;32;34620;-68
2022/01/23 11:02:51;;;;;;;9.50;3.00;;;;;;;2.95;39.15;101632.53;5350990;32;44413;-77
2022/01/23 11:05:53;;;;;;;11.77;3.60;;;;;;;3.14;39.59;101657.00;5355618;32;34555;-76
2022/01/23 11:09:09;;;;;;;13.03;3.83;;;;;;;3.75;38.60;101652.47;5377202;32;35845;-68
2022/01/23 11:19:09;;;;;;;12.10;3.70;;;;;;;3.84;38.56;101652.53;5361420;32;34686;-66
2022/01/23 11:22:22;;;;;;;11.83;5.30;;;;;;;2.59;41.66;101656.34;5362612;32;34731;-76
2022/01/23 11:25:25;;;;;;;11.60;3.72;;;;;;;3.02;40.72;101656.87;5366057;32;44517;-67
2022/01/23 11:28:33;;;;;;;10.10;3.07;;;;;;;2.81;40.65;101654.88;5363090;32;34577;-75
2022/01/23 11:31:36;;;;;;;9.23;3.10;;;;;;;2.78;40.42;101644.47;5363171;32;35762;-67
2022/01/23 11:34:39;;;;;;;8.82;3.17;;;;;;;2.46;40.54;101642.31;5371646;32;35219;-67
2022/01/23 11:37:48;;;;;;;18.37;6.25;;;;;;;2.14;41.54;101650.50;5361837;32;34709;-76
2022/01/23 11:51:19;;;;;;;9.00;3.17;;;;;;;3.03;38.84;101641.31;5365172;32;42042;-68
2022/01/23 11:54:14;;;;;;;9.23;3.50;;;;;;;2.99;38.93;101639.53;5363320;32;34471;-76
2022/01/23 11:57:35;;;;;;;14.93;3.93;;;;;;;2.60;40.36;101635.59;5340034;32;46132;-78
2022/01/23 12:00:40;;;;;;;7.40;3.10;;;;;;;3.97;37.79;101632.69;5349763;32;36113;-68
2022/01/23 12:04:08;;;;;;;10.60;3.37;;;;;;;3.88;37.20;101641.31;5360544;32;34688;-77
2022/01/23 12:07:15;;;;;;;8.70;3.23;;;;;;;3.14;38.85;101636.22;5378575;32;38197;-68
2022/01/23 12:10:36;;;;;;;13.53;3.33;;;;;;;3.62;37.98;101633.28;5359722;32;43040;-76
2022/01/23 12:17:07;;;;;;;9.37;2.93;;;;;;;3.05;38.40;101641.34;5358788;32;34555;-67
2022/01/23 12:20:10;;;;;;;9.30;2.90;;;;;;;1.96;40.68;101637.22;5353373;32;34875;-68
2022/01/23 12:23:14;;;;;;;8.60;3.07;;;;;;;3.84;37.19;101629.13;5369048;32;35393;-77
2022/01/23 12:26:19;;;;;;;8.23;3.07;;;;;;;3.77;37.77;101629.94;5358336;32;45056;-68
2022/01/23 12:29:27;;;;;;;10.27;3.27;;;;;;;3.73;37.36;101608.22;5378339;32;34656;-76
2022/01/23 12:32:36;;;;;;;10.23;3.55;;;;;;;4.73;36.03;101630.56;5361556;32;34669;-68
2022/01/23 12:35:48;;;;;;;7.73;3.23;;;;;;;3.69;37.75;101624.66;5359766;32;34685;-76
2022/01/23 12:38:53;;;;;;;8.27;3.23;;;;;;;3.47;38.83;101622.72;5368924;32;44657;-67
2022/01/23 12:41:59;;;;;;;12.43;3.60;;;;;;;3.80;38.27;101620.44;5363045;32;34452;-67
2022/01/23 12:45:01;;;;;;;9.57;3.33;;;;;;;3.70;38.09;101612.53;5364845;32;35781;-76
2022/01/23 12:48:25;;;;;;;12.80;4.03;;;;;;;2.99;39.71;101614.44;5363669;32;35889;-77
2022/01/23 12:51:27;;;;;;;7.90;3.30;;;;;;;4.74;36.80;101608.00;5359665;32;34916;-77
2022/01/23 12:54:31;;;;;;;10.33;3.10;;;;;;;5.18;34.87;101602.06;5357315;32;35902;-76
2022/01/23 12:57:40;;;;;;;12.00;4.43;;;;;;;3.83;38.11;101609.19;5338763;32;34434;-69
2022/01/23 13:00:42;;;;;;;9.53;3.43;;;;;;;4.63;36.90;101602.72;5351432;32;34739;-77
2022/01/23 13:03:59;;;;;;;8.70;3.40;;;;;;;5.00;36.15;101608.97;5356954;32;34603;-68
2022/01/23 13:07:12;;;;;;;10.27;3.20;;;;;;;4.89;35.56;101615.88;5362811;32;35832;-67
2022/01/23 13:16:40;;;;;;;9.73;3.30;;;;;;;4.33;37.18;101612.13;5361536;32;34672;-76
2022/01/23 13:30:15;;;;;;;8.23;3.53;;;;;;;4.83;36.40;101610.63;5360119;32;34617;-68
2022/01/23 13:33:22;;;;;;;13.77;3.67;;;;;;;5.78;35.00;101603.00;5365474;32;45971;-68
2022/01/23 13:36:24;;;;;;;12.37;3.83;;;;;;;8.07;31.01;101588.88;5363449;32;34920;-67
2022/01/23 13:39:31;;;;;;;9.80;4.20;;;;;;;7.50;30.71;101606.78;5363249;32;34424;-67
2022/01/23 13:50:49;;;;;;;9.60;3.27;;;;;;;9.33;28.45;101603.97;5367090;32;44638;-77
2022/01/23 13:53:12;;;;;;;12.63;3.50;;;;;;;5.93;33.00;101622.19;5363123;32;36220;-77
2022/01/23 14:03:30;;;;;;;10.60;3.63;;;;;;;4.70;36.59;101633.19;5338628;32;34706;-68
2022/01/23 14:06:32;;;;;;;10.40;3.53;;;;;;;4.98;35.57;101635.88;5355879;32;35805;-76
2022/01/23 14:09:40;;;;;;;9.13;3.83;;;;;;;3.54;38.45;101645.31;5363588;32;35643;-76
2022/01/23 14:12:44;;;;;;;9.33;3.50;;;;;;;5.31;35.88;101632.50;5361236;32;34460;-76
2022/01/23 14:15:55;;;;;;;9.03;3.47;;;;;;;5.10;35.54;101629.00;5359666;32;44275;-68
2022/01/23 14:19:13;;;;;;;9.47;3.47;;;;;;;4.60;36.22;101629.63;5366337;32;35961;-69
2022/01/23 14:22:27;;;;;;;12.57;3.50;;;;;;;4.86;36.00;101632.38;5359803;32;43119;-76
2022/01/23 14:25:29;;;;;;;9.00;3.20;;;;;;;4.49;36.50;101646.94;5362732;32;35541;-77
2022/01/23 14:28:41;;;;;;;11.43;3.30;;;;;;;3.91;38.08;101646.50;5365004;32;35660;-68
2022/01/23 14:31:43;;;;;;;10.47;3.23;;;;;;;3.74;38.49;101638.59;5343490;32;36005;-78
2022/01/23 14:34:46;;;;;;;9.57;3.57;;;;;;;3.47;39.47;101646.09;5363715;32;44505;-71
2022/01/23 14:37:49;;;;;;;12.67;3.83;;;;;;;4.29;37.78;101639.00;5360352;32;34711;-69
2022/01/23 14:40:51;;;;;;;8.88;3.17;;;;;;;3.57;39.20;101662.69;5361594;32;34440;-76
2022/01/23 14:43:54;;;;;;;9.70;3.53;;;;;;;3.34;39.84;101652.03;5361340;32;34900;-77
2022/01/23 14:46:57;;;;;;;8.03;3.57;;;;;;;3.23;40.07;101651.94;5362438;32;35925;-68
2022/01/23 14:50:00;;;;;;;8.73;3.33;;;;;;;3.83;39.45;101647.31;5361176;32;35114;-66
2022/01/23 14:53:14;;;;;;;9.77;3.83;;;;;;;3.20;40.71;101663.16;5371413;32;34725;-76
2022/01/23 14:56:18;;;;;;;11.52;3.65;;;;;;;3.61;39.26;101661.88;5339292;32;46603;-69
2022/01/23 14:59:20;;;;;;;10.40;3.62;;;;;;;3.25;40.39;101663.22;5360547;32;35911;-69
2022/01/23 15:02:23;;;;;;;8.57;3.13;;;;;;;3.77;39.52;101666.34;5358571;32;35016;-77
2022/01/23 15:05:30;;;;;;;12.02;4.00;;;;;;;3.29;40.16;101675.41;5357449;32;34724;-69
2022/01/23 15:08:33;;;;;;;10.63;3.67;;;;;;;4.14;38.55;101664.94;5363541;32;34545;-79
2022/01/23 15:11:37;;;;;;;9.00;3.53;;;;;;;4.88;37.43;101676.66;5356016;32;34547;-69
2022/01/23 15:14:40;;;;;;;7.82;3.20;;;;;;;3.14;40.85;101683.88;5361951;32;35748;-69
2022/01/23 15:17:42;;;;;;;8.88;3.20;;;;;;;3.75;40.40;101681.94;5366395;32;34603;-78
2022/01/23 15:20:45;;;;;;;8.43;3.57;;;;;;;3.79;40.68;101685.41;5361336;32;34679;-77
2022/01/23 15:23:54;;;;;;;12.10;3.90;;;;;;;3.78;40.54;101700.16;5368469;32;44286;-69
2022/01/23 15:26:56;;;;;;;18.57;4.30;;;;;;;2.82;42.80;101701.63;5358473;32;34643;-78
2022/01/23 15:29:59;;;;;;;17.93;4.10;;;;;;;3.39;42.02;101702.34;5367425;32;35820;-78
2022/01/23 15:33:01;;;;;;;12.97;4.37;;;;;;;3.17;42.48;101696.91;5364757;32;34989;-78
2022/01/23 15:36:04;;;;;;;14.20;4.10;;;;;;;3.02;42.88;101714.87;5364123;32;35475;-78
2022/01/23 15:39:07;;;;;;;11.37;4.10;;;;;;;3.73;41.81;101709.62;5367937;32;35314;-77
2022/01/23 15:42:09;;;;;;;13.90;4.07;;;;;;;3.35;42.67;101718.75;5361828;32;35738;-69
2022/01/23 15:45:13;;;;;;;11.10;4.13;;;;;;;3.91;41.21;101713.28;5374521;32;34424;-69
2022/01/23 15:48:15;;;;;;;9.18;3.53;;;;;;;3.68;42.07;101726.06;5353746;32;36757;-68
2022/01/23 15:51:18;;;;;;;14.63;3.77;;;;;;;2.95;44.02;101726.03;5365853;32;44176;-69
2022/01/23 15:54:20;;;;;;;9.07;3.80;;;;;;;2.59;44.88;101731.59;5367052;32;36218;-77
2022/01/23 15:57:22;;;;;;;10.73;3.63;;;;;;;2.56;44.74;101729.81;5340145;32;36200;-68
2022/01/23 16:00:25;;;;;;;12.57;3.50;;;;;;;3.20;43.64;101728.09;5362336;32;34742;-78
2022/01/23 16:03:28;;;;;;;9.15;3.70;;;;;;;1.98;46.55;101747.03;5357098;32;35975;-68
2022/01/23 16:06:30;;;;;;;11.00;3.90;;;;;;;2.09;46.26;101752.41;5369239;32;35091;-77
2022/01/23 16:09:34;;;;;;;10.80;4.47;;;;;;;2.44;45.19;101738.28;5364556;32;34555;-68
2022/01/23 16:12:41;;;;;;;10.18;4.00;;;;;;;2.94;44.15;101738.16;5363863;32;34609;-69
2022/01/23 16:15:43;;;;;;;15.73;4.30;;;;;;;3.21;43.78;101741.97;5351565;32;35932;-77
2022/01/23 16:18:46;;;;;;;12.27;4.40;;;;;;;3.01;44.03;101740.84;5362962;32;36453;-69
2022/01/23 16:21:51;;;;;;;12.50;3.97;;;;;;;2.82;44.64;101735.37;5366431;32;43111;-77
2022/01/23 16:24:54;;;;;;;9.73;3.57;;;;;;;2.14;46.00;101743.88;5372350;32;35353;-76
2022/01/23 16:27:57;;;;;;;8.63;3.40;;;;;;;3.13;44.06;101733.22;5351651;32;35689;-69
2022/01/23 16:31:00;;;;;;;11.60;4.03;;;;;;;3.30;43.55;101739.50;5364098;32;35605;-78
2022/01/23 16:34:02;;;;;;;12.23;4.60;;;;;;;3.39;43.35;101743.94;5367226;32;34434;-68
2022/01/23 16:37:06;;;;;;;8.67;3.23;;;;;;;2.15;45.53;101760.31;5337907;32;963120;-69
2022/01/23 16:40:09;;;;;;;13.83;3.87;;;;;;;2.48;45.45;101751.31;5370480;32;34507;-76
2022/01/23 16:43:13;;;;;;;14.57;4.70;;;;;;;2.26;45.72;101758.78;5378932;32;34947;-79
2022/01/23 16:46:16;;;;;;;;;;;;;;;2.98;44.24;101752.06;5363569;32;36905;-69
2022/01/23 16:49:19;;;;;;;11.63;3.73;;;;;;;2.31;45.68;101762.28;5369010;32;45956;-78
2022/01/23 16:52:21;;;;;;;8.33;3.37;;;;;;;2.06;46.93;101768.81;5363702;32;34863;-68
2022/01/23 16:55:23;;;;;;;9.77;4.17;;;;;;;2.20;46.42;101771.63;5344211;32;34449;-77
2022/01/23 16:58:30;;;;;;;10.97;3.90;;;;;;;2.64;45.23;101766.25;5349558;32;32486;-68
2022/01/23 17:01:32;;;;;;;9.10;3.90;;;;;;;1.58;47.40;101767.03;5354626;32;34860;-78
2022/01/23 17:04:35;;;;;;;12.37;4.68;;;;;;;1.51;48.18;101770.34;5367334;32;33444;-69
2022/01/23 17:07:38;;;;;;;9.87;4.00;;;;;;;1.74;47.13;101746.56;5358591;32;35009;-69
2022/01/23 17:10:40;;;;;;;14.33;4.37;;;;;;;1.80;47.68;101767.44;5357790;32;35220;-68
2022/01/23 17:13:44;;;;;;;13.47;4.70;;;;;;;1.26;48.81;101765.50;5364142;32;35488;-77
2022/01/23 17:16:48;;;;;;;12.10;4.40;;;;;;;1.78;47.75;101764.81;5361445;32;44349;-69
2022/01/23 17:19:50;;;;;;;16.53;4.40;;;;;;;1.66;48.06;101777.53;5367296;32;35976;-79
2022/01/23 17:22:53;;;;;;;10.57;4.80;;;;;;;2.44;46.23;101773.75;5359477;32;34549;-68
2022/01/23 17:25:55;;;;;;;13.90;3.97;;;;;;;1.54;48.06;101780.75;5364767;32;34496;-78
2022/01/23 17:28:57;;;;;;;17.93;4.87;;;;;;;1.36;48.47;101783.00;5371929;32;34666;-69
2022/01/23 17:32:01;;;;;;;10.90;4.40;;;;;;;1.95;47.31;101787.59;5365893;32;35813;-68
2022/01/23 17:35:04;;;;;;;14.02;4.80;;;;;;;1.76;47.67;101791.56;5366965;32;34538;-76
2022/01/23 17:38:06;;;;;;;14.73;5.10;;;;;;;2.06;47.05;101801.62;5348198;32;35843;-67
2022/01/23 17:41:09;;;;;;;9.47;4.20;;;;;;;2.76;45.28;101788.94;5354799;32;34616;-76
2022/01/23 17:44:11;;;;;;;15.43;4.60;;;;;;;2.40;45.97;101796.19;5373112;32;34788;-68
2022/01/23 17:47:33;;;;;;;18.63;4.97;;;;;;;1.70;47.49;101801.81;5366379;32;34629;-77
2022/01/23 17:50:42;;;;;;;12.70;4.73;;;;;;;1.75;47.69;101807.97;5345123;32;35305;-67
2022/01/23 17:53:45;;;;;;;17.13;5.60;;;;;;;1.59;47.81;101805.06;5363023;32;34758;-78
2022/01/23 17:56:50;;;;;;;16.90;5.20;;;;;;;1.35;48.64;101808.03;5342056;32;44360;-77
2022/01/23 17:59:52;;;;;;;17.23;4.90;;;;;;;2.47;46.05;101822.25;5358977;32;34744;-69
2022/01/23 18:02:55;;;;;;;12.77;4.10;;;;;;;2.52;45.53;101831.88;5359520;32;36134;-67
2022/01/23 18:06:00;;;;;;;11.60;4.70;;;;;;;2.39;45.97;101843.75;5358898;32;35135;-76